KHLR/HLR METAR and TAF weather

Enter ICAO airport designator
Station Type Date Time Source
KHLR METAR 2022/12/04 12:10 UTC NOAA

KHLR 041210Z AUTO 36007KT 10SM -RA FEW011 OVC022 09/05 A3032 RMK AO2 RAB10 SLP267


Station Type Date Time Source
KHLR Decoded METAR 2022/12/04 12:10 UTC NOAA

Fort Hood, Hood AAF Ft Hood, TX, United States (KHLR) 31-08N 097-42W
Dec 04, 2022 - 07:10 AM EST / 2022.12.04 1210 UTC
Wind: from the N (360 degrees) at 8 MPH (7 KT):0
Visibility: 10 mile(s):0
Sky conditions: overcast
Weather: light rain
Temperature: 48 F (9 C)
Dew Point: 41 F (5 C)
Relative Humidity: 75%
Pressure (altimeter): 30.32 in. Hg (1026 hPa)
ob: KHLR 041210Z AUTO 36007KT 10SM -RA FEW011 OVC022 09/05 A3032 RMK AO2 RAB10 SLP267
cycle: 12

Station Type Date Time Source
KHLR TAF UTC NOAA

Error!

Example: see airport list